Time;durP1;ratioP1;P1;durP2;ratioP2;P2;SDS_P1;SDS_P2;PMS_P1;PMS_P2;Temp;Humidity;BMP_temperature;BMP_pressure;BME280_temperature;BME280_humidity;BME280_pressure;Samples;Min_cycle;Max_cycle;Signal;HPM_P1;HPM_P2
2023/12/31 00:00:10;;;;;;;6.43;2.97;;;9.20;94.20;;;10.89;64.17;100681.34;3081906;46;20604;-64
2023/12/31 00:02:39;;;;;;;5.33;2.47;;;9.20;94.10;;;10.92;64.05;100675.72;3081600;46;20435;-66
2023/12/31 00:05:07;;;;;;;7.93;3.60;;;9.30;94.10;;;10.94;64.21;100668.44;3081689;46;20469;-65
2023/12/31 00:07:36;;;;;;;7.63;3.30;;;9.30;94.10;;;10.97;64.00;100668.09;3081235;46;20604;-65
2023/12/31 00:10:06;;;;;;;6.10;2.93;;;9.30;94.10;;;11.00;64.11;100667.75;3081552;46;21070;-64
2023/12/31 00:12:34;;;;;;;5.23;2.63;;;9.30;94.10;;;11.02;63.82;100659.66;3081561;46;21188;-65
2023/12/31 00:15:04;;;;;;;6.30;3.00;;;9.30;94.00;;;11.04;63.77;100652.41;3081338;46;20550;-66
2023/12/31 00:17:33;;;;;;;7.23;2.90;;;9.40;94.10;;;11.03;63.72;100650.78;3081160;46;20444;-65
2023/12/31 00:20:03;;;;;;;8.17;3.03;;;9.40;94.00;;;11.04;63.70;100652.41;3081260;46;20582;-65
2023/12/31 00:22:32;;;;;;;5.90;2.47;;;9.40;93.90;;;11.03;63.78;100650.78;3081052;46;20694;-64
2023/12/31 00:25:00;;;;;;;8.73;3.53;;;9.40;93.90;;;11.03;63.68;100645.50;3081581;46;20558;-64
2023/12/31 00:27:28;;;;;;;5.73;2.80;;;9.40;93.90;;;11.04;63.65;100647.13;3081050;46;20478;-64
2023/12/31 00:29:57;;;;;;;4.83;2.93;;;9.40;93.90;;;11.06;63.70;100639.88;3081393;46;20597;-64
2023/12/31 00:32:25;;;;;;;6.87;2.20;;;9.40;93.90;;;11.08;63.72;100632.63;3081530;46;20558;-65
2023/12/31 00:34:53;;;;;;;5.17;2.37;;;9.40;93.90;;;11.09;63.78;100636.88;3081330;46;21032;-65
2023/12/31 00:37:22;;;;;;;5.93;2.37;;;9.40;93.90;;;11.10;63.63;100636.69;3081034;46;20439;-65
2023/12/31 00:39:50;;;;;;;4.97;2.30;;;9.40;93.90;;;11.12;63.60;100639.16;3080954;46;20529;-66
2023/12/31 00:42:19;;;;;;;5.57;2.80;;;9.40;93.80;;;11.09;63.47;100629.81;3080891;46;20534;-65
2023/12/31 00:44:47;;;;;;;5.90;2.80;;;9.40;93.80;;;11.08;63.53;100622.88;3081244;46;20443;-66
2023/12/31 00:47:15;;;;;;;4.87;2.30;;;9.40;93.80;;;11.08;63.62;100627.34;3080553;46;20474;-66
2023/12/31 00:49:44;;;;;;;5.00;2.20;;;9.40;93.80;;;11.04;63.47;100629.53;3080846;46;20438;-66
2023/12/31 00:52:12;;;;;;;3.53;2.10;;;9.40;93.70;;;11.01;63.59;100610.63;3081029;46;20442;-66
2023/12/31 00:54:41;;;;;;;5.77;2.30;;;9.40;93.70;;;10.96;63.95;100605.88;3085591;46;20526;-65
2023/12/31 00:57:09;;;;;;;5.33;2.73;;;9.40;93.70;;;10.93;63.86;100605.44;3085823;46;21008;-65
2023/12/31 00:59:37;;;;;;;6.00;2.77;;;9.40;93.70;;;10.91;64.07;100607.44;3085518;46;20516;-67
2023/12/31 01:02:06;;;;;;;5.83;2.47;;;9.40;93.80;;;10.87;64.14;100610.44;3085702;46;20442;-66
2023/12/31 01:04:36;;;;;;;3.50;2.33;;;9.40;93.80;;;10.83;64.28;100611.78;3085960;46;20441;-66
2023/12/31 01:07:05;;;;;;;6.67;2.10;;;9.30;93.80;;;10.80;64.14;100604.25;3085760;46;20438;-66
2023/12/31 01:09:33;;;;;;;8.13;2.70;;;9.30;93.80;;;10.79;64.36;100599.97;3085806;46;20521;-65
2023/12/31 01:12:02;;;;;;;4.57;2.10;;;9.30;93.90;;;10.79;64.47;100597.34;3085461;46;21008;-65
2023/12/31 01:14:31;;;;;;;5.10;2.20;;;9.30;93.90;;;10.79;64.53;100599.97;3085752;46;21147;-66
2023/12/31 01:16:59;;;;;;;4.17;2.23;;;9.30;94.00;;;10.80;64.55;100588.47;3085593;46;20495;-65
2023/12/31 01:19:28;;;;;;;6.37;2.00;;;9.30;94.00;;;10.82;64.67;100583.81;3085832;46;21191;-65
2023/12/31 01:21:57;;;;;;;6.13;2.37;;;9.20;94.10;;;10.86;64.55;100586.94;3085438;46;21088;-65
2023/12/31 01:24:26;;;;;;;5.43;2.40;;;9.30;94.10;;;10.88;64.36;100585.75;3085910;46;21096;-65
2023/12/31 01:26:54;;;;;;;4.40;2.20;;;9.30;94.10;;;10.93;64.43;100587.00;3085293;46;20642;-65
2023/12/31 01:29:23;;;;;;;5.07;2.47;;;9.30;94.10;;;10.96;64.25;100584.81;3085715;46;20450;-63
2023/12/31 01:31:52;;;;;;;4.27;1.97;;;9.30;94.20;;;11.02;64.17;100580.66;3085762;46;20462;-66
2023/12/31 01:34:21;;;;;;;4.70;2.10;;;9.40;94.20;;;11.04;64.20;100590.00;3085203;46;20566;-66
2023/12/31 01:36:49;;;;;;;3.93;2.00;;;9.40;94.10;;;11.05;64.01;100586.41;3085367;46;20455;-66
2023/12/31 01:39:17;;;;;;;5.17;2.20;;;9.40;94.40;;;11.05;64.00;100578.50;3085250;46;20581;-67
2023/12/31 01:41:46;;;;;;;2.50;1.60;;;9.40;94.00;;;11.07;63.96;100579.13;3084926;46;20565;-63
2023/12/31 01:44:14;;;;;;;6.07;2.00;;;9.50;94.00;;;11.11;64.07;100574.31;3085641;46;20432;-62
2023/12/31 01:46:43;;;;;;;3.47;1.83;;;9.50;94.00;;;11.13;63.90;100574.94;3085311;46;20427;-65
2023/12/31 01:49:11;;;;;;;6.07;2.53;;;9.50;93.90;;;11.17;63.74;100574.38;3084686;46;20483;-66
2023/12/31 01:51:40;;;;;;;5.47;2.37;;;9.50;93.90;;;11.17;63.70;100569.13;3084992;46;20430;-65
2023/12/31 01:54:09;;;;;;;6.63;1.90;;;9.50;93.80;;;11.18;63.62;100567.31;3085638;46;20434;-64
2023/12/31 01:56:39;;;;;;;6.03;2.73;;;9.60;93.80;;;11.21;63.71;100566.94;3084644;46;20638;-66
2023/12/31 01:59:09;;;;;;;6.40;1.97;;;9.60;93.80;;;11.22;63.62;100565.97;3085108;46;20426;-64
2023/12/31 02:01:37;;;;;;;5.50;2.27;;;9.60;93.80;;;11.24;63.60;100558.69;3085386;46;21048;-65
2023/12/31 02:04:06;;;;;;;6.77;2.27;;;9.60;93.70;;;11.25;63.32;100557.66;3084667;46;20564;-66
2023/12/31 02:06:35;;;;;;;5.60;2.10;;;9.60;93.70;;;11.26;63.51;100554.03;3082235;46;20522;-66
2023/12/31 02:09:03;;;;;;;3.87;1.60;;;9.60;93.70;;;11.27;63.40;100553.03;3082891;46;20427;-65
2023/12/31 02:11:34;;;;;;;3.07;1.90;;;9.60;93.70;;;11.26;63.35;100546.16;3083020;46;20482;-65
2023/12/31 02:14:03;;;;;;;2.93;1.80;;;9.70;93.60;;;11.24;63.30;100537.59;3083046;46;20606;-63
2023/12/31 02:16:31;;;;;;;5.27;2.10;;;9.70;93.60;;;11.22;63.28;100524.59;3082616;46;20506;-64
2023/12/31 02:19:00;;;;;;;5.07;2.23;;;9.70;93.50;;;11.22;63.25;100524.59;3082604;46;20477;-65
2023/12/31 02:21:28;;;;;;;4.03;1.83;;;9.70;93.50;;;11.22;63.36;100518.53;3082766;46;20466;-65
2023/12/31 02:23:57;;;;;;;5.90;1.47;;;9.70;93.50;;;11.19;63.35;100513.63;3082283;46;20534;-65
2023/12/31 02:26:26;;;;;;;4.73;1.90;;;9.70;93.50;;;11.16;63.50;100514.00;3082768;46;21005;-63
2023/12/31 02:28:54;;;;;;;5.47;2.23;;;9.70;93.50;;;11.16;63.61;100506.91;3081350;46;20585;-66
2023/12/31 02:31:23;;;;;;;4.10;2.03;;;9.70;93.50;;;11.16;63.64;100499.00;3082273;46;20434;-64
2023/12/31 02:33:51;;;;;;;3.40;1.67;;;9.70;93.50;;;11.14;63.47;100501.00;3082409;46;20432;-65
2023/12/31 02:36:20;;;;;;;5.30;1.53;;;9.70;93.50;;;11.13;63.50;100495.91;3082777;46;20466;-65
2023/12/31 02:38:48;;;;;;;2.33;1.67;;;9.70;93.40;;;11.09;63.58;100502.56;3082265;46;20439;-66
2023/12/31 02:41:16;;;;;;;5.20;2.00;;;9.60;93.40;;;11.06;63.49;100498.47;3082242;46;20587;-66
2023/12/31 02:43:45;;;;;;;4.03;1.70;;;9.60;93.40;;;11.04;63.67;100494.38;3082295;46;20567;-65
2023/12/31 02:46:13;;;;;;;4.60;2.13;;;9.60;93.40;;;10.98;63.72;100484.59;3082399;46;20461;-65
2023/12/31 02:48:41;;;;;;;2.53;1.40;;;9.60;93.40;;;10.95;63.91;100482.31;3081444;46;20451;-66
2023/12/31 02:51:10;;;;;;;2.67;1.90;;;9.50;93.50;;;10.87;64.05;100481.41;3082357;46;20534;-66
2023/12/31 02:53:38;;;;;;;2.83;1.40;;;9.50;93.50;;;10.85;64.22;100486.06;3082333;46;20548;-66
2023/12/31 02:56:07;;;;;;;1.60;1.43;;;9.50;93.60;;;10.83;64.25;100490.69;3082414;46;20473;-63
2023/12/31 02:58:35;;;;;;;3.37;1.73;;;9.40;93.60;;;10.78;64.21;100485.16;3081483;46;20569;-66
2023/12/31 03:01:04;;;;;;;3.00;1.67;;;9.40;93.60;;;10.76;64.35;100460.00;3082298;46;20537;-64
2023/12/31 03:03:32;;;;;;;5.37;2.07;;;9.40;93.60;;;10.69;64.38;100481.00;3082395;46;20455;-66
2023/12/31 03:06:00;;;;;;;2.97;1.83;;;9.30;93.60;;;10.64;64.51;100472.81;3082567;46;20459;-65
2023/12/31 03:08:29;;;;;;;4.57;1.67;;;9.30;93.60;;;10.62;64.73;100484.53;3081687;46;20443;-68
2023/12/31 03:10:57;;;;;;;6.47;1.70;;;9.20;93.70;;;10.62;64.61;100480.06;3082084;46;20453;-65
2023/12/31 03:13:26;;;;;;;4.10;1.67;;;9.20;93.80;;;10.64;64.63;100472.00;3082114;46;20427;-66
2023/12/31 03:15:54;;;;;;;5.87;2.10;;;9.20;93.90;;;10.64;64.60;100467.56;3081823;46;20534;-63
2023/12/31 03:18:23;;;;;;;2.83;1.73;;;9.10;93.90;;;10.66;64.51;100464.72;3081653;46;21019;-65
2023/12/31 03:20:51;;;;;;;4.03;1.70;;;9.10;93.90;;;10.67;64.32;100456.63;3082023;46;20498;-65
2023/12/31 03:23:19;;;;;;;4.90;1.83;;;9.20;94.00;;;10.67;64.19;100456.63;3081706;46;20455;-66
2023/12/31 03:25:48;;;;;;;7.07;2.00;;;9.20;94.00;;;10.64;64.68;100461.47;3082137;46;20611;-65
2023/12/31 03:28:16;;;;;;;3.47;1.63;;;9.10;94.00;;;10.63;64.61;100459.81;3081316;46;20439;-65
2023/12/31 03:30:45;;;;;;;3.27;1.80;;;9.10;93.90;;;10.61;64.69;100446.84;3081933;46;21009;-66
2023/12/31 03:33:13;;;;;;;2.67;1.80;;;9.20;94.00;;;10.66;64.66;100446.31;3082227;46;20510;-64
2023/12/31 03:35:41;;;;;;;3.37;1.60;;;9.20;94.00;;;10.66;64.44;100439.22;3081985;46;20524;-66
2023/12/31 03:38:10;;;;;;;5.27;1.67;;;9.20;94.00;;;10.67;64.62;100438.22;3081217;46;20480;-65
2023/12/31 03:40:40;;;;;;;3.80;2.10;;;9.20;94.00;;;10.65;64.59;100429.69;3081793;46;20454;-66
2023/12/31 03:43:09;;;;;;;3.33;1.60;;;9.20;94.00;;;10.64;64.56;100417.53;3081605;46;20427;-65
2023/12/31 03:45:37;;;;;;;2.60;1.70;;;9.20;94.00;;;10.66;64.71;100423.44;3082041;46;20432;-65
2023/12/31 03:48:06;;;;;;;4.40;1.57;;;9.10;94.00;;;10.66;64.62;100423.44;3081607;46;21015;-65
2023/12/31 03:50:36;;;;;;;5.73;1.73;;;9.20;94.00;;;10.65;64.71;100416.53;3081672;46;20427;-64
2023/12/31 03:53:04;;;;;;;3.03;1.50;;;9.20;94.00;;;10.68;64.61;100416.16;3082060;46;20558;-63
2023/12/31 03:55:33;;;;;;;2.40;1.73;;;9.20;94.00;;;10.70;64.53;100418.59;3081906;46;20436;-65
2023/12/31 03:58:01;;;;;;;3.73;2.13;;;9.20;94.00;;;10.66;64.62;100410.28;3081392;46;20472;-66
2023/12/31 04:00:30;;;;;;;5.47;2.83;;;9.20;94.00;;;10.64;64.70;100404.38;3082331;46;20435;-62
2023/12/31 04:02:58;;;;;;;7.53;2.33;;;9.20;94.00;;;10.68;64.74;100399.56;3081687;46;20511;-65
2023/12/31 04:05:27;;;;;;;5.67;2.63;;;9.20;94.10;;;10.70;64.88;100392.28;3082021;46;20430;-65
2023/12/31 04:07:56;;;;;;;3.47;2.20;;;9.20;94.20;;;10.72;64.67;100385.84;3081177;46;20441;-66
2023/12/31 04:10:24;;;;;;;5.00;1.80;;;9.20;94.20;;;10.74;64.58;100375.94;3081665;46;20455;-63
2023/12/31 04:12:53;;;;;;;4.13;1.90;;;9.20;94.20;;;10.73;64.79;100371.69;3081401;46;21024;-66
2023/12/31 04:15:21;;;;;;;3.57;1.70;;;9.20;94.20;;;10.69;64.91;100359.91;3081629;46;20459;-63
2023/12/31 04:17:51;;;;;;;3.17;1.47;;;9.20;94.20;;;10.68;64.95;100352.19;3081186;46;20439;-64
2023/12/31 04:20:19;;;;;;;3.13;1.93;;;9.20;94.20;;;10.64;65.02;100351.75;3081306;46;20569;-65
2023/12/31 04:22:48;;;;;;;4.67;2.00;;;9.20;94.20;;;10.63;65.37;100342.22;3081460;46;20456;-65
2023/12/31 04:25:16;;;;;;;3.60;2.17;;;9.20;94.20;;;10.57;65.60;100335.06;3081301;46;20428;-63
2023/12/31 04:27:44;;;;;;;5.23;2.63;;;9.20;94.30;;;10.56;65.74;100333.44;3080308;46;20929;-65
2023/12/31 04:30:13;;;;;;;3.13;1.97;;;9.20;94.40;;;10.54;65.90;100330.16;3081443;46;20431;-65
2023/12/31 04:32:41;;;;;;;3.53;2.13;;;9.20;94.40;;;10.53;65.80;100318.00;3081724;46;20971;-65
2023/12/31 04:35:10;;;;;;;6.67;2.00;;;9.20;94.40;;;10.54;66.03;100317.00;3081324;46;20428;-63
2023/12/31 04:37:38;;;;;;;2.80;1.93;;;9.20;94.50;;;10.51;66.07;100314.75;3081173;46;20445;-65
2023/12/31 04:40:07;;;;;;;4.60;1.87;;;9.20;94.50;;;10.46;66.28;100317.09;3081249;46;20595;-66
2023/12/31 04:42:36;;;;;;;2.97;1.40;;;9.20;94.50;;;10.41;66.29;100306.31;3081363;46;20580;-64
2023/12/31 04:45:08;;;;;;;3.67;1.97;;;9.10;94.50;;;10.40;66.45;100304.69;3081122;46;20498;-66
2023/12/31 04:47:37;;;;;;;3.03;1.57;;;9.10;94.50;;;10.36;66.50;100292.94;3080738;46;20452;-65
2023/12/31 04:50:07;;;;;;;2.87;1.80;;;9.10;94.60;;;10.37;66.53;100281.38;3080859;46;20521;-66
2023/12/31 04:52:35;;;;;;;4.17;2.00;;;9.00;94.60;;;10.32;66.56;100280.31;3081064;46;20427;-65
2023/12/31 04:55:04;;;;;;;3.00;1.70;;;9.00;94.70;;;10.26;67.00;100268.72;3080920;46;20431;-66
2023/12/31 04:57:33;;;;;;;3.37;1.80;;;9.00;94.70;;;10.25;67.04;100261.81;3080815;46;20438;-65
2023/12/31 05:00:02;;;;;;;3.77;1.97;;;9.00;94.80;;;10.22;67.36;100262.22;3080792;46;20997;-66
2023/12/31 05:02:31;;;;;;;4.07;1.80;;;9.00;94.80;;;10.22;67.18;100261.38;3081050;46;21020;-66
2023/12/31 05:05:01;;;;;;;5.83;2.33;;;8.90;94.80;;;10.20;67.30;100253.66;3080780;46;20428;-65
2023/12/31 05:07:30;;;;;;;3.90;2.13;;;8.90;94.90;;;10.19;67.37;100252.03;3080595;46;20523;-66
2023/12/31 05:09:58;;;;;;;3.80;1.80;;;8.90;94.90;;;10.18;67.32;100251.22;3080693;46;20431;-64
2023/12/31 05:12:27;;;;;;;2.50;1.73;;;8.90;95.00;;;10.19;67.48;100249.41;3080835;46;20442;-66
2023/12/31 05:14:55;;;;;;;5.27;2.27;;;8.90;95.10;;;10.17;67.73;100251.41;3080490;46;20440;-65
2023/12/31 05:17:24;;;;;;;4.07;1.67;;;8.90;95.20;;;10.14;67.76;100243.88;3080754;46;20438;-66
2023/12/31 05:19:52;;;;;;;8.10;2.33;;;8.80;95.20;;;10.10;67.80;100242.59;3080635;46;21033;-65
2023/12/31 05:22:21;;;;;;;2.53;1.77;;;8.80;95.20;;;10.04;68.21;100233.63;3080634;46;20446;-66
2023/12/31 05:24:49;;;;;;;2.40;1.70;;;8.80;95.30;;;10.03;68.38;100229.34;3080776;46;20924;-66
2023/12/31 05:27:19;;;;;;;2.00;1.90;;;8.80;95.30;;;10.09;67.93;100226.00;3079601;46;20447;-64
2023/12/31 05:29:48;;;;;;;5.00;2.10;;;8.80;95.30;;;10.12;68.04;100215.16;3080853;46;21030;-65
2023/12/31 05:32:16;;;;;;;3.50;2.27;;;8.80;95.40;;;10.16;67.89;100215.59;3080949;46;20919;-65
2023/12/31 05:34:45;;;;;;;5.30;2.20;;;8.80;95.40;;;10.15;68.06;100211.31;3080566;46;20436;-65
2023/12/31 05:37:13;;;;;;;1.63;1.40;;;8.80;95.50;;;10.13;68.23;100200.19;3080197;46;20475;-65
2023/12/31 05:39:42;;;;;;;4.77;2.07;;;8.80;95.50;;;10.13;67.96;100205.44;3081942;46;20439;-66
2023/12/31 05:42:10;;;;;;;4.60;1.87;;;8.80;95.50;;;10.15;68.04;100198.16;3082559;46;20560;-66
2023/12/31 05:44:38;;;;;;;1.93;1.70;;;8.80;95.50;;;10.11;68.40;100196.88;3083058;46;20430;-66
2023/12/31 05:47:07;;;;;;;4.50;2.17;;;8.80;95.60;;;10.09;68.37;100181.31;3082768;46;21108;-65
2023/12/31 05:49:35;;;;;;;3.97;1.60;;;8.80;95.60;;;10.11;68.58;100181.97;3083233;46;20528;-66
2023/12/31 05:52:08;;;;;;;3.60;2.00;;;8.70;95.60;;;10.12;68.48;100177.53;3083373;46;20562;-65
2023/12/31 05:54:39;;;;;;;3.40;2.17;;;8.80;95.60;;;10.08;68.37;100177.03;3083110;46;20426;-66
2023/12/31 05:57:08;;;;;;;1.87;1.50;;;8.80;95.80;;;10.05;68.74;100158.22;3082518;46;21004;-66
2023/12/31 05:59:36;;;;;;;2.70;1.40;;;8.80;95.90;;;10.03;68.88;100162.84;3082753;46;20540;-65
2023/12/31 06:02:07;;;;;;;2.90;1.60;;;8.70;95.80;;;10.04;69.13;100153.94;3082854;46;20423;-66
2023/12/31 06:04:35;;;;;;;2.67;2.00;;;8.70;95.90;;;10.06;69.04;100149.31;3082932;46;20426;-65
2023/12/31 06:07:03;;;;;;;2.97;2.07;;;8.70;95.90;;;10.02;69.17;100155.94;3082523;46;20450;-66
2023/12/31 06:09:32;;;;;;;4.30;2.10;;;8.70;96.00;;;10.01;69.53;100149.03;3082790;46;20541;-65
2023/12/31 06:12:00;;;;;;;2.73;2.00;;;8.70;96.00;;;9.97;69.71;100147.78;3082708;46;20524;-64
2023/12/31 06:14:28;;;;;;;2.60;2.00;;;8.70;96.10;;;10.01;69.44;100143.78;3083075;46;20438;-65
2023/12/31 06:16:57;;;;;;;2.40;1.90;;;8.70;96.00;;;10.00;69.41;100134.28;3082669;46;20445;-63
2023/12/31 06:19:25;;;;;;;2.57;2.17;;;8.70;96.10;;;10.02;69.51;100127.03;3083250;46;20442;-66
2023/12/31 06:21:54;;;;;;;2.20;1.70;;;8.70;96.00;;;10.03;69.21;100120.78;3082487;46;20439;-65
2023/12/31 06:24:22;;;;;;;3.57;2.00;;;8.70;96.10;;;10.03;69.47;100121.56;3082936;46;20987;-66
2023/12/31 06:26:54;;;;;;;2.03;1.90;;;8.70;96.10;;;10.05;69.68;100116.13;3082313;46;20455;-62
2023/12/31 06:29:22;;;;;;;2.93;2.00;;;8.70;96.10;;;10.06;69.32;100115.94;3082599;46;20427;-64
2023/12/31 06:31:51;;;;;;;2.97;2.10;;;8.70;96.20;;;10.03;69.83;100115.50;3082674;46;20499;-64
2023/12/31 06:34:19;;;;;;;4.33;2.07;;;8.70;96.20;;;10.02;69.55;100108.63;3082647;46;21067;-65
2023/12/31 06:36:48;;;;;;;2.73;2.20;;;8.70;96.20;;;10.00;69.82;100110.63;3082459;46;20440;-66
2023/12/31 06:39:16;;;;;;;3.20;2.10;;;8.70;96.30;;;10.04;69.56;100114.50;3082820;46;20526;-66
2023/12/31 06:41:45;;;;;;;3.90;2.27;;;8.70;96.20;;;10.06;69.43;100104.59;3082092;46;20427;-65
2023/12/31 06:44:13;;;;;;;3.77;2.70;;;8.70;96.20;;;10.05;69.41;100100.38;3082789;46;20431;-65
2023/12/31 06:46:42;;;;;;;6.80;2.40;;;8.70;96.30;;;10.06;69.61;100094.09;3081963;46;20922;-63
2023/12/31 06:49:10;;;;;;;3.20;2.00;;;8.70;96.20;;;10.08;69.41;100087.66;3082364;46;20428;-65
2023/12/31 06:51:39;;;;;;;4.37;2.43;;;8.70;96.20;;;10.11;69.27;100087.31;3081639;46;20453;-64
2023/12/31 06:54:07;;;;;;;3.63;2.40;;;8.70;96.20;;;10.14;69.31;100084.31;3082375;46;20431;-65
2023/12/31 06:56:35;;;;;;;3.23;2.50;;;8.70;96.20;;;10.11;69.34;100089.94;3081318;46;20493;-64
2023/12/31 06:59:04;;;;;;;5.33;2.63;;;8.70;96.20;;;10.12;69.24;100083.69;3082358;46;20459;-65
2023/12/31 07:01:32;;;;;;;3.03;2.60;;;8.80;96.20;;;10.12;69.10;100078.44;3082349;46;20526;-65
2023/12/31 07:04:01;;;;;;;3.63;2.43;;;8.80;96.20;;;10.10;69.03;100076.97;3082336;46;20434;-66
2023/12/31 07:06:29;;;;;;;4.60;3.03;;;8.80;96.10;;;10.05;69.31;100058.31;3082107;46;20495;-65
2023/12/31 07:08:57;;;;;;;4.03;2.63;;;8.80;96.10;;;10.05;69.27;100055.69;3081794;46;21105;-66
2023/12/31 07:11:26;;;;;;;3.80;2.30;;;8.80;96.40;;;10.05;69.18;100056.50;3081159;46;20538;-65
2023/12/31 07:13:54;;;;;;;2.73;2.13;;;8.80;96.00;;;10.07;69.12;100056.28;3081120;46;20451;-66
2023/12/31 07:16:22;;;;;;;5.63;2.50;;;8.80;96.00;;;10.07;69.06;100053.66;3082122;46;20435;-66
2023/12/31 07:18:51;;;;;;;4.77;2.80;;;8.80;96.00;;;10.05;69.16;100042.53;3081668;46;20535;-66
2023/12/31 07:21:23;;;;;;;2.47;2.27;;;8.80;96.00;;;10.03;69.22;100036.66;3082002;46;20988;-66
2023/12/31 07:23:52;;;;;;;3.17;2.20;;;8.80;96.00;;;10.01;69.24;100023.66;3082063;46;20432;-63
2023/12/31 07:26:28;;;;;;;5.83;2.53;;;8.80;96.00;;;10.00;69.25;100022.06;3081777;46;21018;-65
2023/12/31 07:28:56;;;;;;;4.33;2.50;;;8.80;96.00;;;10.05;69.37;100026.75;3081450;46;20446;-65
2023/12/31 07:31:38;;;;;;;3.77;1.93;;;8.80;96.00;;;9.99;69.26;100019.59;3082010;46;20996;-66
2023/12/31 07:34:06;;;;;;;3.53;2.20;;;8.80;96.10;;;10.00;69.28;100018.63;3081761;46;20569;-65
2023/12/31 07:36:35;;;;;;;4.27;2.77;;;8.80;96.10;;;10.06;69.32;100010.78;3081744;46;20455;-64
2023/12/31 07:39:04;;;;;;;2.67;2.30;;;8.80;96.10;;;10.05;69.33;100013.59;3081769;46;21081;-64
2023/12/31 07:41:32;;;;;;;3.73;2.40;;;8.80;96.10;;;10.05;69.26;100011.81;3081542;46;20549;-67
2023/12/31 07:44:01;;;;;;;4.90;2.40;;;8.80;96.10;;;10.06;69.42;100005.53;3081840;46;21131;-65
2023/12/31 07:46:30;;;;;;;3.10;2.40;;;8.80;96.10;;;10.12;69.18;99999.56;3081981;46;20432;-65
2023/12/31 07:48:58;;;;;;;5.57;2.73;;;8.90;96.10;;;10.10;69.17;99992.81;3081477;46;20475;-65
2023/12/31 07:51:27;;;;;;;3.83;2.30;;;8.90;96.40;;;10.18;69.16;99987.44;3082484;46;20493;-65
2023/12/31 07:53:55;;;;;;;3.33;2.13;;;8.90;96.00;;;10.17;69.19;99986.63;3082123;46;20466;-65
2023/12/31 07:56:23;;;;;;;2.67;2.10;;;8.90;96.00;;;10.16;69.24;99978.94;3081521;46;20465;-65
2023/12/31 07:58:52;;;;;;;3.23;2.57;;;8.90;96.00;;;10.22;68.96;99978.19;3080988;46;20459;-65
2023/12/31 08:01:20;;;;;;;3.13;2.20;;;8.90;95.90;;;10.24;68.84;99973.56;3081701;46;20431;-65
2023/12/31 08:03:50;;;;;;;3.10;2.10;;;9.00;96.00;;;10.28;68.98;99976.59;3080525;46;21098;-65
2023/12/31 08:06:19;;;;;;;4.20;2.40;;;9.00;95.90;;;10.30;68.79;99964.88;3081943;46;20508;-65
2023/12/31 08:08:48;;;;;;;3.57;2.20;;;9.00;95.90;;;10.37;68.66;99970.19;3081344;46;20454;-65
2023/12/31 08:11:18;;;;;;;2.97;2.20;;;9.00;95.90;;;10.38;68.66;99969.19;3081675;46;20487;-66
2023/12/31 08:13:49;;;;;;;2.77;2.23;;;9.10;95.90;;;10.40;68.56;99949.59;3081456;46;20544;-65
2023/12/31 08:16:19;;;;;;;3.07;2.13;;;9.10;95.90;;;10.39;68.43;99958.47;3081598;46;20439;-66
2023/12/31 08:18:47;;;;;;;2.63;2.10;;;9.10;95.80;;;10.35;68.31;99941.44;3081496;46;20471;-65
2023/12/31 08:21:15;;;;;;;3.27;1.73;;;9.10;95.80;;;10.40;68.56;99944.31;3081322;46;20513;-64
2023/12/31 08:23:44;;;;;;;3.50;2.20;;;9.20;95.80;;;10.48;68.48;99944.19;3081259;46;20466;-66
2023/12/31 08:26:14;;;;;;;6.07;2.47;;;9.20;95.70;;;10.57;68.18;99950.91;3081495;46;20940;-66
2023/12/31 08:28:42;;;;;;;3.40;2.20;;;9.20;95.60;;;10.59;67.94;99943.63;3080826;46;20444;-65
2023/12/31 08:31:16;;;;;;;3.90;2.37;;;9.20;95.50;;;10.63;67.56;99934.31;3081433;46;21038;-66
2023/12/31 08:33:44;;;;;;;5.73;2.67;;;9.30;95.50;;;10.66;67.38;99936.56;3081216;46;20424;-64
2023/12/31 08:36:13;;;;;;;4.13;2.40;;;9.30;95.40;;;10.71;67.34;99942.06;3081297;46;21082;-64
2023/12/31 08:38:41;;;;;;;2.50;1.97;;;9.40;95.30;;;10.72;67.28;99933.16;3080566;46;20439;-65
2023/12/31 08:41:10;;;;;;;3.27;1.90;;;9.40;95.20;;;10.78;67.09;99927.13;3081331;46;20427;-66
2023/12/31 08:43:38;;;;;;;2.87;1.97;;;9.40;95.20;;;10.78;67.00;99927.13;3081120;46;20504;-64
2023/12/31 08:46:07;;;;;;;3.70;1.90;;;9.40;95.10;;;10.80;67.03;99917.22;3081138;46;20455;-65
2023/12/31 08:48:36;;;;;;;2.87;2.17;;;9.50;95.00;;;10.85;66.71;99909.53;3080289;46;21017;-65
2023/12/31 08:51:04;;;;;;;4.70;2.00;;;9.50;95.00;;;10.87;66.63;99915.41;3081195;46;20439;-64
2023/12/31 08:53:33;;;;;;;1.47;1.37;;;9.50;95.00;;;10.86;66.52;99905.88;3081111;46;20456;-65
2023/12/31 08:56:01;;;;;;;3.77;1.60;;;9.50;94.90;;;10.87;66.50;99899.63;3080865;46;20465;-66
2023/12/31 08:58:30;;;;;;;3.10;2.13;;;9.50;94.90;;;10.86;66.54;99903.25;3080367;46;20572;-65
2023/12/31 09:00:58;;;;;;;2.97;2.03;;;9.50;94.80;;;10.83;66.46;99898.41;3081045;46;20457;-65
2023/12/31 09:03:27;;;;;;;2.63;1.70;;;9.50;94.70;;;10.88;66.47;99896.00;3080866;46;20439;-66
2023/12/31 09:05:55;;;;;;;3.10;1.43;;;9.60;94.80;;;10.88;66.28;99903.88;3080923;46;20435;-63
2023/12/31 09:08:23;;;;;;;4.07;1.50;;;9.60;94.80;;;10.88;66.33;99892.53;3080312;46;20588;-66
2023/12/31 09:10:54;;;;;;;2.93;1.60;;;9.50;94.70;;;10.89;66.37;99894.97;3080799;46;20492;-66
2023/12/31 09:13:22;;;;;;;2.93;1.70;;;9.60;94.70;;;10.98;66.17;99900.06;3080687;46;20452;-65
2023/12/31 09:15:51;;;;;;;3.57;1.90;;;9.60;94.70;;;11.02;66.06;99899.47;3083112;46;21008;-66
2023/12/31 09:18:19;;;;;;;2.57;1.70;;;9.60;94.60;;;11.03;65.87;99887.13;3083009;46;20496;-65
2023/12/31 09:20:48;;;;;;;1.70;1.57;;;9.60;94.60;;;11.09;65.71;99888.94;3083416;46;20483;-66
2023/12/31 09:23:19;;;;;;;3.73;1.90;;;9.60;94.60;;;11.11;65.60;99884.28;3083269;46;20498;-65
2023/12/31 09:25:47;;;;;;;2.00;1.80;;;9.70;94.60;;;11.13;65.43;99888.34;3083239;46;20490;-65
2023/12/31 09:28:17;;;;;;;3.23;1.90;;;9.70;94.50;;;11.15;65.50;99881.06;3083043;46;20440;-66
2023/12/31 09:30:45;;;;;;;2.80;1.60;;;9.70;94.50;;;11.19;65.27;99884.13;3083312;46;20432;-66
2023/12/31 09:33:14;;;;;;;1.93;1.70;;;9.70;94.40;;;11.24;65.22;99873.81;3083689;46;20439;-65
2023/12/31 09:35:42;;;;;;;2.07;1.60;;;9.80;94.40;;;11.27;65.08;99870.75;3083219;46;20431;-65
2023/12/31 09:38:11;;;;;;;1.93;1.70;;;9.70;94.30;;;11.24;65.00;99866.72;3083031;46;20446;-66
2023/12/31 09:40:42;;;;;;;2.83;1.87;;;9.80;94.20;;;11.31;64.77;99874.63;3083240;46;20452;-65
2023/12/31 09:43:19;;;;;;;2.47;1.90;;;9.80;94.20;;;11.36;64.75;99866.94;3082980;46;20441;-65
2023/12/31 09:45:49;;;;;;;4.17;1.90;;;9.90;94.20;;;11.42;64.40;99871.38;3083062;46;20997;-65
2023/12/31 09:48:17;;;;;;;1.70;1.60;;;9.90;94.10;;;11.44;64.27;99866.72;3082849;46;20490;-66
2023/12/31 09:50:46;;;;;;;2.50;1.80;;;9.90;94.10;;;11.52;64.08;99869.16;3082763;46;21028;-65
2023/12/31 09:53:19;;;;;;;2.33;1.70;;;10.00;93.60;;;11.54;63.92;99861.88;3082430;46;20427;-65
2023/12/31 09:55:49;;;;;;;2.73;1.63;;;10.00;93.50;;;11.56;63.93;99863.28;3082200;46;20460;-64
2023/12/31 09:58:18;;;;;;;2.37;1.63;;;10.00;93.40;;;11.60;63.63;99855.78;3081865;46;20479;-66
2023/12/31 10:00:46;;;;;;;2.83;1.67;;;10.00;93.20;;;11.58;63.59;99860.44;3082017;46;20523;-64
2023/12/31 10:03:15;;;;;;;2.50;1.90;;;10.10;93.20;;;11.58;63.58;99855.16;3082226;46;20430;-66
2023/12/31 10:05:49;;;;;;;2.43;1.77;;;10.10;93.10;;;11.67;63.72;99840.78;3082791;46;20439;-65
2023/12/31 10:08:19;;;;;;;2.10;1.90;;;10.20;93.20;;;11.67;63.10;99838.13;3081775;46;20465;-66
2023/12/31 10:10:53;;;;;;;1.40;1.30;;;10.20;93.00;;;11.69;63.27;99820.34;3082730;46;20985;-66
2023/12/31 10:13:21;;;;;;;2.33;1.87;;;10.20;92.90;;;11.70;63.01;99821.13;3081842;46;20427;-65
2023/12/31 10:15:52;;;;;;;1.83;1.60;;;10.20;92.80;;;11.62;62.91;99822.16;3082771;46;20432;-63
2023/12/31 10:18:21;;;;;;;3.97;1.83;;;10.20;92.70;;;11.63;63.05;99810.56;3082379;46;20438;-65
2023/12/31 10:20:49;;;;;;;2.03;1.60;;;10.30;93.00;;;11.67;63.08;99803.88;3082833;46;20451;-66
2023/12/31 10:23:18;;;;;;;2.03;1.83;;;10.30;92.70;;;11.72;63.40;99796.19;3082584;46;21123;-66
2023/12/31 10:25:47;;;;;;;2.70;2.07;;;10.30;92.70;;;11.76;62.77;99804.50;3081260;46;20431;-65